首页
METAR-TAF:

METAR-TAF

机场 :

罗斯托克-拉格机场

罗斯托克, 德国

纬度: 53-55N, 经度: 012-17E, 海拔: 40米

当前天气观测

该预报发布于1小时和4分钟前的03:20 UTC
风速2节,风向南转西南
温度 4°C
湿度 93%
气压 1003 hPa
能見度: 6000

METAR: ETNL 140320Z AUTO 20002KT 6000 // ////// 04/03 Q1003 ///

时间: 05:24 (04:24 UTC)

预报

该预报发布于5小时和24分钟前的23:00 UTC
预报有效从14日的 00点(UTC)到 14日的 12点(UTC)
风速5节,风向南转西南
能见度10公里或以上
多云层高于4000英尺
短暂存在
从 14日的 00点(UTC)到 14日的 10点(UTC)
风速5节,风向
能見度: 4000
散云层高于4000英尺
轻雾
几率 30%
从 14日的 03点(UTC)到 14日的 08点(UTC)
风速2节,风向南转南东
能見度: 0500
多云层高于100英尺

TAF: ETNL 132300Z 1400/1412 20005KT 9999 NSW BKN040 TEMPO 1400/1410 18005KT 4000 BR SCT040 PROB30 1403/1408 15002KT 0500 FG BKN001 CANCEL BY ETGL

超过4000个机场的气象观测和天气预报(METAR&TAF报告)。

可查询的气象台以黄色和红色小点在地图上表示。

将鼠标移到小点上方,可查看气象台名称。

然后点击查看天气观测和预报。

如需切换地图:点击带黑十字的绿色按钮放大地图;点击带横线的绿色按钮缩小地图;或者点击绿色箭头查看邻近地区的地图。


METAR-TAF: